Time;durP1;ratioP1;P1;durP2;ratioP2;P2;SDS_P1;SDS_P2;PMS_P1;PMS_P2;Temp;Humidity;BMP_temperature;BMP_pressure;BME280_temperature;BME280_humidity;BME280_pressure;Samples;Min_cycle;Max_cycle;Signal;HPM_P1;HPM_P2
2024/03/04 00:00:36;;;;;;;3.17;1.20;;;8.90;99.90;;;;;;5008188;28;20535;-76
2024/03/04 00:03:01;;;;;;;2.97;0.95;;;8.90;99.90;;;;;;5011662;28;20062;-76
2024/03/04 00:05:28;;;;;;;2.13;0.90;;;8.80;99.90;;;;;;5011755;28;20045;-79
2024/03/04 00:07:54;;;;;;;4.25;1.20;;;8.80;99.90;;;;;;5009652;28;20455;-79
2024/03/04 00:10:20;;;;;;;6.88;1.33;;;8.70;99.90;;;;;;5008488;28;20480;-79
2024/03/04 00:12:46;;;;;;;1.33;0.60;;;8.70;99.90;;;;;;5010367;28;20044;-79
2024/03/04 00:15:13;;;;;;;1.75;0.80;;;8.80;99.90;;;;;;5010728;28;20037;-79
2024/03/04 00:17:40;;;;;;;4.00;0.88;;;8.80;99.90;;;;;;5011504;28;21492;-79
2024/03/04 00:20:09;;;;;;;2.08;0.52;;;8.80;99.90;;;;;;5011506;28;20033;-79
2024/03/04 00:22:35;;;;;;;1.45;0.73;;;8.70;99.90;;;;;;5010195;28;20331;-79
2024/03/04 00:25:01;;;;;;;1.83;1.10;;;8.70;99.90;;;;;;5010581;28;20044;-79
2024/03/04 00:27:27;;;;;;;4.72;1.52;;;8.80;99.90;;;;;;5009938;28;20033;-79
2024/03/04 00:29:52;;;;;;;3.42;1.10;;;8.90;99.90;;;;;;5010948;28;20148;-79
2024/03/04 00:32:18;;;;;;;2.97;0.60;;;8.80;99.90;;;;;;5010430;28;20096;-78
2024/03/04 00:34:44;;;;;;;1.33;0.68;;;8.80;99.90;;;;;;5010209;28;20043;-79
2024/03/04 00:37:10;;;;;;;3.15;1.17;;;8.80;99.90;;;;;;5010390;28;20725;-79
2024/03/04 00:39:40;;;;;;;1.75;0.70;;;8.90;99.90;;;;;;5009759;28;20042;-79
2024/03/04 00:42:06;;;;;;;6.38;1.38;;;8.90;99.90;;;;;;5010423;28;20488;-79
2024/03/04 00:44:32;;;;;;;1.88;0.88;;;8.80;99.90;;;;;;5011298;28;20056;-79
2024/03/04 00:46:58;;;;;;;2.38;0.75;;;9.00;99.90;;;;;;5010765;28;20472;-79
2024/03/04 00:49:23;;;;;;;2.17;1.08;;;9.00;99.90;;;;;;5012034;28;20029;-78
2024/03/04 00:51:49;;;;;;;5.13;1.33;;;9.00;99.90;;;;;;5010181;28;20602;-79
2024/03/04 00:54:15;;;;;;;2.92;1.33;;;9.00;99.90;;;;;;5008521;28;20033;-78
2024/03/04 00:56:41;;;;;;;1.65;0.80;;;9.10;99.90;;;;;;5009948;28;20087;-78
2024/03/04 00:59:07;;;;;;;2.42;0.75;;;9.20;99.90;;;;;;5004824;28;20128;-79
2024/03/04 01:01:33;;;;;;;2.60;1.13;;;9.10;99.90;;;;;;5011056;28;20048;-79
2024/03/04 01:03:59;;;;;;;2.03;0.93;;;9.10;99.90;;;;;;5008399;28;20120;-79
2024/03/04 01:06:27;;;;;;;2.08;0.93;;;9.10;99.90;;;;;;5009067;28;20039;-79
2024/03/04 01:08:53;;;;;;;2.80;0.88;;;9.10;99.90;;;;;;5009584;28;20052;-79
2024/03/04 01:11:19;;;;;;;4.03;1.10;;;8.90;99.90;;;;;;5009564;28;20065;-79
2024/03/04 01:13:47;;;;;;;3.17;0.80;;;8.80;99.90;;;;;;5010074;28;20061;-79
2024/03/04 01:16:13;;;;;;;4.03;1.23;;;8.80;99.90;;;;;;5010085;28;20140;-79
2024/03/04 01:18:40;;;;;;;5.03;1.23;;;8.80;99.90;;;;;;5009681;28;20409;-79
2024/03/04 01:21:06;;;;;;;4.03;0.98;;;9.10;99.90;;;;;;5009509;28;20044;-79
2024/03/04 01:23:32;;;;;;;1.80;0.68;;;9.00;99.90;;;;;;5010488;28;20033;-79
2024/03/04 01:25:58;;;;;;;3.97;1.67;;;9.00;99.90;;;;;;5007673;28;20037;-79
2024/03/04 01:28:23;;;;;;;2.50;0.90;;;9.00;99.90;;;;;;5009083;28;20041;-79
2024/03/04 01:30:49;;;;;;;0.95;0.60;;;8.90;99.90;;;;;;5010913;28;20047;-79
2024/03/04 01:33:16;;;;;;;2.45;1.02;;;8.90;99.90;;;;;;5009102;28;20388;-79
2024/03/04 01:35:42;;;;;;;3.08;0.88;;;8.90;99.90;;;;;;5007674;28;20033;-79
2024/03/04 01:38:08;;;;;;;3.08;0.98;;;8.80;99.90;;;;;;5010232;28;20380;-79
2024/03/04 01:40:34;;;;;;;1.33;0.60;;;8.80;99.90;;;;;;5009084;28;20488;-79
2024/03/04 01:43:00;;;;;;;1.30;0.60;;;8.80;99.90;;;;;;5006939;28;20035;-79
2024/03/04 01:45:27;;;;;;;1.48;0.50;;;8.90;99.90;;;;;;5010707;28;20037;-79
2024/03/04 01:47:55;;;;;;;1.38;0.63;;;8.90;99.90;;;;;;5008004;28;20044;-78
2024/03/04 01:50:25;;;;;;;1.23;0.40;;;8.80;99.90;;;;;;5007714;28;20497;-78
2024/03/04 01:52:52;;;;;;;2.75;0.50;;;8.80;99.90;;;;;;5009198;28;20038;-79
2024/03/04 01:55:19;;;;;;;2.22;0.68;;;8.90;99.90;;;;;;5008757;28;20396;-79
2024/03/04 01:57:47;;;;;;;1.33;0.35;;;9.00;99.90;;;;;;5009222;28;21246;-79
2024/03/04 02:00:15;;;;;;;2.60;0.60;;;8.90;99.90;;;;;;5008680;28;20835;-79
2024/03/04 02:02:41;;;;;;;1.98;0.60;;;8.90;99.90;;;;;;5008358;28;20456;-79
2024/03/04 02:05:09;;;;;;;2.42;0.70;;;8.90;99.90;;;;;;5010954;28;20173;-78
2024/03/04 02:07:38;;;;;;;1.63;0.73;;;8.80;99.90;;;;;;5007349;28;20128;-79
2024/03/04 02:10:06;;;;;;;1.70;0.60;;;8.80;99.90;;;;;;5008109;28;20100;-79
2024/03/04 02:12:33;;;;;;;4.55;0.85;;;8.70;99.90;;;;;;5010218;28;20575;-79
2024/03/04 02:15:02;;;;;;;2.80;1.65;;;8.70;99.90;;;;;;5010017;28;20423;-78
2024/03/04 02:17:28;;;;;;;2.22;0.45;;;8.70;99.90;;;;;;5007596;28;20086;-79
2024/03/04 02:20:04;;;;;;;1.08;0.55;;;8.70;99.90;;;;;;5008461;28;20120;-79
2024/03/04 02:22:31;;;;;;;1.70;0.57;;;8.80;99.90;;;;;;5006361;28;20026;-79
2024/03/04 02:24:57;;;;;;;1.98;0.70;;;8.80;99.90;;;;;;5008831;28;20029;-78
2024/03/04 02:27:22;;;;;;;1.80;0.50;;;8.80;99.90;;;;;;5004299;28;20053;-79
2024/03/04 02:29:48;;;;;;;1.92;0.63;;;8.70;99.90;;;;;;5007366;28;20883;-78
2024/03/04 02:32:17;;;;;;;1.45;0.40;;;8.70;99.90;;;;;;5009661;28;20152;-79
2024/03/04 02:34:47;;;;;;;0.93;0.50;;;8.70;99.90;;;;;;5009585;28;20037;-79
2024/03/04 02:37:13;;;;;;;2.20;0.70;;;8.70;99.90;;;;;;5007215;28;20029;-79
2024/03/04 02:39:40;;;;;;;5.32;0.70;;;8.70;99.90;;;;;;5008862;28;20037;-79
2024/03/04 02:42:06;;;;;;;3.33;0.75;;;8.60;99.90;;;;;;5005882;28;20033;-79
2024/03/04 02:44:32;;;;;;;1.63;0.70;;;8.80;99.90;;;;;;5007831;28;20098;-79
2024/03/04 02:46:58;;;;;;;3.38;1.42;;;8.80;99.90;;;;;;5008602;28;20041;-79
2024/03/04 02:49:24;;;;;;;3.17;1.13;;;8.70;99.90;;;;;;5006992;28;20041;-79
2024/03/04 02:51:55;;;;;;;1.35;1.05;;;8.80;99.90;;;;;;5007432;28;20045;-79
2024/03/04 02:54:21;;;;;;;4.97;0.80;;;8.80;99.90;;;;;;5009350;28;20041;-79
2024/03/04 02:56:47;;;;;;;3.05;1.02;;;8.80;99.90;;;;;;5007587;28;20044;-79
2024/03/04 02:59:13;;;;;;;4.50;1.10;;;8.70;99.90;;;;;;5006969;28;20083;-79
2024/03/04 03:01:39;;;;;;;4.03;1.02;;;8.60;99.90;;;;;;5006674;28;20065;-79
2024/03/04 03:04:05;;;;;;;3.13;1.00;;;8.50;99.90;;;;;;5006713;28;20038;-78
2024/03/04 03:06:31;;;;;;;1.88;0.80;;;8.40;99.90;;;;;;5007284;28;20037;-79
2024/03/04 03:08:57;;;;;;;3.15;0.98;;;8.20;99.90;;;;;;5008654;28;20120;-79
2024/03/04 03:11:24;;;;;;;1.75;0.80;;;8.00;99.90;;;;;;5005664;28;20063;-79
2024/03/04 03:13:49;;;;;;;2.55;0.70;;;8.10;99.90;;;;;;5006447;28;20308;-79
2024/03/04 03:16:19;;;;;;;3.85;1.15;;;8.20;99.90;;;;;;5008741;28;20652;-79
2024/03/04 03:18:45;;;;;;;2.70;0.70;;;8.30;99.90;;;;;;5010227;28;20087;-78
2024/03/04 03:21:12;;;;;;;3.67;1.05;;;8.40;99.90;;;;;;5008817;28;20871;-78
2024/03/04 03:23:41;;;;;;;5.38;0.80;;;8.40;99.90;;;;;;5006902;28;20617;-78
2024/03/04 03:26:06;;;;;;;2.05;0.82;;;8.60;99.90;;;;;;5008851;28;20037;-78
2024/03/04 03:28:32;;;;;;;1.27;0.50;;;8.60;99.90;;;;;;5006356;28;20056;-78
2024/03/04 03:30:58;;;;;;;2.90;0.95;;;8.60;99.90;;;;;;5005950;28;20037;-78
2024/03/04 03:33:23;;;;;;;2.03;0.75;;;8.40;99.90;;;;;;5009237;28;20560;-78
2024/03/04 03:35:49;;;;;;;7.35;0.95;;;8.40;99.90;;;;;;5006762;28;20372;-78
2024/03/04 03:38:14;;;;;;;4.40;1.30;;;8.50;99.90;;;;;;5005407;28;20740;-79
2024/03/04 03:40:40;;;;;;;1.92;0.82;;;8.50;99.90;;;;;;5006822;28;20037;-78
2024/03/04 03:43:06;;;;;;;2.92;0.82;;;8.50;99.90;;;;;;5005777;28;20077;-78
2024/03/04 03:45:33;;;;;;;2.33;0.90;;;8.40;99.90;;;;;;5007436;28;20605;-78
2024/03/04 03:47:59;;;;;;;3.22;1.13;;;8.60;99.90;;;;;;5010626;28;20040;-78
2024/03/04 03:50:24;;;;;;;2.45;1.15;;;8.60;99.90;;;;;;5011236;28;20033;-78
2024/03/04 03:52:50;;;;;;;4.05;1.50;;;8.50;99.90;;;;;;5009390;28;20034;-78
2024/03/04 03:55:16;;;;;;;3.17;1.15;;;8.50;99.90;;;;;;5011141;28;21228;-78
2024/03/04 03:57:42;;;;;;;6.32;0.95;;;8.30;99.90;;;;;;5010914;28;20096;-78
2024/03/04 04:00:10;;;;;;;3.25;0.80;;;8.50;99.90;;;;;;5009061;28;20087;-74
2024/03/04 04:02:36;;;;;;;2.28;1.02;;;8.50;99.90;;;;;;4994519;28;20513;-78
2024/03/04 04:05:02;;;;;;;2.55;0.95;;;8.30;99.90;;;;;;5010007;28;20033;-78
2024/03/04 04:07:28;;;;;;;3.75;0.88;;;8.20;99.90;;;;;;5012119;28;20021;-78
2024/03/04 04:09:54;;;;;;;2.83;1.23;;;8.00;99.90;;;;;;5007635;28;20064;-78
2024/03/04 04:12:19;;;;;;;2.70;0.90;;;8.00;99.90;;;;;;5010657;28;20037;-78
2024/03/04 04:14:45;;;;;;;3.80;1.40;;;7.90;99.90;;;;;;5010605;28;20029;-78
2024/03/04 04:17:12;;;;;;;3.33;0.93;;;8.00;99.90;;;;;;5010815;28;20038;-78
2024/03/04 04:19:39;;;;;;;3.53;0.93;;;8.00;99.90;;;;;;5006792;28;20442;-78
2024/03/04 04:22:05;;;;;;;3.25;0.90;;;8.00;99.90;;;;;;5007716;28;20640;-79
2024/03/04 04:24:31;;;;;;;2.55;0.82;;;8.00;99.90;;;;;;5008829;28;20495;-78
2024/03/04 04:26:57;;;;;;;3.33;1.00;;;8.00;99.90;;;;;;5007594;28;20041;-78
2024/03/04 04:29:23;;;;;;;4.88;0.93;;;8.10;99.90;;;;;;5007462;28;20037;-78
2024/03/04 04:31:49;;;;;;;1.75;0.70;;;8.10;99.90;;;;;;5007768;28;20071;-78
2024/03/04 04:34:14;;;;;;;2.83;1.05;;;8.20;99.90;;;;;;4999297;28;20903;-79
2024/03/04 04:36:50;;;;;;;2.08;0.70;;;8.30;99.90;;;;;;5006572;28;20041;-78
2024/03/04 04:39:17;;;;;;;1.95;0.65;;;8.30;99.90;;;;;;5007591;28;20881;-78
2024/03/04 04:41:43;;;;;;;2.20;0.65;;;8.30;99.90;;;;;;5007620;28;20036;-78
2024/03/04 04:44:09;;;;;;;3.90;0.90;;;8.30;99.90;;;;;;5007603;28;20052;-78
2024/03/04 04:46:37;;;;;;;11.10;5.15;;;8.20;99.90;;;;;;5007174;28;20026;-78
2024/03/04 04:49:04;;;;;;;3.40;1.30;;;8.30;99.90;;;;;;5007291;28;20041;-78
2024/03/04 04:51:31;;;;;;;2.90;1.27;;;8.10;99.90;;;;;;5008363;28;20044;-78
2024/03/04 04:53:56;;;;;;;3.22;1.27;;;8.10;99.90;;;;;;5008272;28;20578;-78
2024/03/04 04:56:22;;;;;;;5.30;1.60;;;8.10;99.90;;;;;;5007327;28;20032;-78
2024/03/04 04:58:48;;;;;;;5.07;1.80;;;8.10;99.90;;;;;;5007178;28;20640;-78
2024/03/04 05:01:26;;;;;;;4.90;1.48;;;8.00;99.90;;;;;;5007664;28;20033;-78
2024/03/04 05:03:53;;;;;;;5.05;1.38;;;8.10;99.90;;;;;;5004748;28;20038;-79
2024/03/04 05:06:20;;;;;;;3.33;1.20;;;8.10;99.90;;;;;;5004648;28;20103;-78
2024/03/04 05:08:46;;;;;;;3.67;1.75;;;8.20;99.90;;;;;;5008537;28;20041;-79
2024/03/04 05:11:12;;;;;;;5.28;1.27;;;8.20;99.90;;;;;;5006419;28;20049;-79
2024/03/04 05:13:37;;;;;;;2.78;1.05;;;8.30;99.90;;;;;;5006385;28;20067;-79
2024/03/04 05:16:04;;;;;;;2.85;1.20;;;8.30;99.90;;;;;;5008842;28;20051;-78
2024/03/04 05:18:30;;;;;;;2.50;1.38;;;8.20;99.90;;;;;;5007164;28;20128;-79
2024/03/04 05:20:55;;;;;;;5.30;1.35;;;8.20;99.90;;;;;;5006680;28;20033;-78
2024/03/04 05:23:21;;;;;;;2.88;1.35;;;8.10;99.90;;;;;;5008697;28;20038;-78
2024/03/04 05:25:48;;;;;;;3.55;1.42;;;8.10;99.90;;;;;;5006892;28;20045;-78
2024/03/04 05:28:14;;;;;;;3.95;1.50;;;8.10;99.90;;;;;;5006126;28;20547;-79
2024/03/04 05:30:41;;;;;;;5.88;1.73;;;8.10;99.90;;;;;;5008505;28;20172;-78
2024/03/04 05:33:07;;;;;;;3.17;1.45;;;8.00;99.90;;;;;;5005406;28;20038;-78
2024/03/04 05:35:33;;;;;;;2.40;1.27;;;8.10;99.90;;;;;;5003931;28;20960;-78
2024/03/04 05:37:59;;;;;;;2.92;1.20;;;8.10;99.90;;;;;;5007001;28;20057;-79
2024/03/04 05:40:26;;;;;;;4.70;1.90;;;8.20;99.90;;;;;;5006255;28;20562;-79
2024/03/04 05:42:52;;;;;;;4.63;1.92;;;8.10;99.90;;;;;;5006402;28;20116;-79
2024/03/04 05:45:18;;;;;;;3.47;1.90;;;8.20;99.90;;;;;;5007046;28;20060;-78
2024/03/04 05:47:43;;;;;;;5.38;1.77;;;8.20;99.90;;;;;;5006227;28;20117;-78
2024/03/04 05:50:13;;;;;;;2.95;1.45;;;8.10;99.90;;;;;;5007208;28;20079;-78
2024/03/04 05:52:39;;;;;;;3.58;1.50;;;8.10;99.90;;;;;;5009946;28;20033;-78
2024/03/04 05:55:06;;;;;;;3.35;1.42;;;8.10;99.90;;;;;;5005351;28;20123;-79
2024/03/04 05:57:33;;;;;;;3.70;1.67;;;8.20;99.90;;;;;;5007054;28;20040;-78
2024/03/04 05:59:59;;;;;;;3.13;1.48;;;8.20;99.90;;;;;;5007149;28;20635;-79
2024/03/04 06:02:25;;;;;;;3.17;1.48;;;8.20;99.90;;;;;;5006785;28;20091;-78
2024/03/04 06:04:51;;;;;;;4.75;2.10;;;8.20;99.90;;;;;;5006674;28;20029;-78
2024/03/04 06:07:16;;;;;;;5.47;1.80;;;8.10;99.90;;;;;;5005286;28;20117;-78
2024/03/04 06:09:43;;;;;;;3.03;1.45;;;8.10;99.90;;;;;;5003863;28;20123;-79
2024/03/04 06:12:10;;;;;;;2.65;1.60;;;8.20;99.90;;;;;;5008217;28;20041;-78
2024/03/04 06:14:35;;;;;;;3.50;1.40;;;8.20;99.90;;;;;;5006037;28;20543;-78
2024/03/04 06:17:01;;;;;;;3.97;1.50;;;8.20;99.90;;;;;;5005524;28;20075;-79
2024/03/04 06:19:27;;;;;;;2.50;1.20;;;8.20;99.90;;;;;;5011670;28;20100;-78
2024/03/04 06:21:54;;;;;;;6.05;1.75;;;8.20;99.90;;;;;;5003474;28;20041;-77
2024/03/04 06:24:20;;;;;;;3.53;1.55;;;8.20;99.90;;;;;;5002446;28;20111;-77
2024/03/04 06:26:46;;;;;;;3.22;1.00;;;8.20;99.90;;;;;;5007373;28;21036;-78
2024/03/04 06:29:11;;;;;;;4.82;0.88;;;8.40;99.90;;;;;;5004836;28;20082;-77
2024/03/04 06:31:37;;;;;;;2.35;0.75;;;8.30;99.90;;;;;;5008067;28;20106;-77
2024/03/04 06:34:03;;;;;;;3.22;0.60;;;8.30;99.90;;;;;;5011166;28;20491;-77
2024/03/04 06:36:29;;;;;;;2.70;1.00;;;8.20;99.90;;;;;;5007980;28;20033;-77
2024/03/04 06:38:54;;;;;;;1.25;0.45;;;8.20;99.90;;;;;;5006470;28;20047;-77
2024/03/04 06:41:20;;;;;;;1.40;0.68;;;8.20;99.90;;;;;;5007779;28;20060;-77
2024/03/04 06:43:45;;;;;;;4.30;0.60;;;8.20;99.90;;;;;;5007842;28;20065;-77
2024/03/04 06:46:11;;;;;;;1.25;0.50;;;8.10;99.90;;;;;;5007070;28;20037;-77
2024/03/04 06:48:38;;;;;;;0.85;0.30;;;8.00;99.90;;;;;;5008223;28;20108;-77
2024/03/04 06:51:04;;;;;;;2.55;0.52;;;8.00;99.90;;;;;;5005787;28;20044;-79
2024/03/04 06:53:29;;;;;;;0.85;0.45;;;7.90;99.90;;;;;;5005428;28;20041;-79
2024/03/04 06:55:55;;;;;;;1.40;0.70;;;7.90;99.90;;;;;;5015124;28;21041;-77
2024/03/04 06:58:22;;;;;;;1.90;0.65;;;7.80;99.90;;;;;;5007703;28;20037;-79
2024/03/04 07:00:51;;;;;;;1.10;0.60;;;7.80;99.90;;;;;;5007069;28;20042;-77
2024/03/04 07:03:17;;;;;;;3.08;1.02;;;7.80;99.90;;;;;;5006467;28;20033;-77
2024/03/04 07:05:43;;;;;;;2.00;0.70;;;7.70;99.90;;;;;;5005903;28;20053;-77
2024/03/04 07:08:09;;;;;;;0.70;0.50;;;7.80;99.90;;;;;;5004997;28;20111;-77
2024/03/04 07:10:36;;;;;;;4.38;1.05;;;7.80;99.90;;;;;;5006839;28;20112;-76
2024/03/04 07:13:02;;;;;;;1.88;0.57;;;7.80;99.90;;;;;;5007193;28;20467;-76
2024/03/04 07:15:28;;;;;;;2.83;1.08;;;7.80;99.90;;;;;;5006050;28;20048;-76
2024/03/04 07:17:55;;;;;;;2.45;0.63;;;7.70;99.90;;;;;;5007870;28;20029;-76
2024/03/04 07:20:20;;;;;;;1.48;0.50;;;7.70;99.90;;;;;;5005653;28;20143;-76
2024/03/04 07:22:46;;;;;;;1.65;0.88;;;7.80;99.90;;;;;;5007751;28;20655;-78
2024/03/04 07:25:11;;;;;;;3.55;1.27;;;7.80;99.90;;;;;;5011837;28;20065;-76
2024/03/04 07:27:37;;;;;;;2.47;0.80;;;7.70;99.90;;;;;;5011153;28;20038;-76
2024/03/04 07:30:03;;;;;;;4.63;0.82;;;7.80;99.90;;;;;;5011333;28;20025;-78
2024/03/04 07:32:29;;;;;;;3.42;1.10;;;7.70;99.90;;;;;;5009752;28;20033;-76
2024/03/04 07:34:55;;;;;;;2.10;0.80;;;7.70;99.90;;;;;;5008396;28;20115;-79
2024/03/04 07:37:20;;;;;;;3.53;1.20;;;7.70;99.90;;;;;;5012090;28;20032;-78
2024/03/04 07:39:47;;;;;;;4.85;1.20;;;7.70;99.90;;;;;;5010749;28;20072;-78
2024/03/04 07:42:13;;;;;;;4.07;1.25;;;7.70;99.90;;;;;;5010436;28;20103;-78
2024/03/04 07:44:39;;;;;;;2.50;1.05;;;7.70;99.90;;;;;;5010947;28;20092;-79
2024/03/04 07:47:06;;;;;;;2.85;1.00;;;7.70;99.90;;;;;;5010041;28;20038;-76
2024/03/04 07:49:31;;;;;;;4.70;1.20;;;7.60;99.90;;;;;;5010219;28;21309;-78
2024/03/04 07:51:57;;;;;;;2.65;1.10;;;7.70;99.90;;;;;;5011753;28;20038;-79
2024/03/04 07:54:23;;;;;;;2.47;1.13;;;7.80;99.90;;;;;;5008640;28;20045;-78
2024/03/04 07:56:49;;;;;;;4.35;2.03;;;7.70;99.90;;;;;;5009490;28;20662;-78
2024/03/04 07:59:15;;;;;;;3.72;1.50;;;7.70;99.90;;;;;;5011292;28;20430;-78
2024/03/04 08:01:48;;;;;;;4.57;1.70;;;7.70;99.90;;;;;;5010061;28;20537;-77
2024/03/04 08:04:14;;;;;;;4.00;1.40;;;7.80;99.90;;;;;;5007180;28;20032;-77
2024/03/04 08:06:39;;;;;;;4.32;1.65;;;7.80;99.90;;;;;;5009720;28;20037;-77
2024/03/04 08:09:05;;;;;;;3.08;1.70;;;7.80;99.90;;;;;;5009054;28;20118;-77
2024/03/04 08:11:31;;;;;;;3.05;1.40;;;7.80;99.90;;;;;;5009477;28;20046;-78
2024/03/04 08:13:57;;;;;;;1.55;1.00;;;7.80;99.90;;;;;;5010039;28;20036;-79
2024/03/04 08:16:22;;;;;;;5.82;1.55;;;7.90;99.90;;;;;;4998425;28;20037;-80
2024/03/04 08:18:48;;;;;;;4.90;1.83;;;8.00;99.90;;;;;;5006575;28;20190;-78
2024/03/04 08:21:17;;;;;;;3.47;1.33;;;8.00;99.90;;;;;;5009320;28;20044;-79
2024/03/04 08:23:43;;;;;;;4.68;2.20;;;8.00;99.90;;;;;;5009000;28;20069;-79
2024/03/04 08:26:09;;;;;;;6.25;2.45;;;8.00;99.90;;;;;;5010118;28;21292;-79
2024/03/04 08:28:34;;;;;;;4.53;2.35;;;8.10;99.90;;;;;;5008819;28;20111;-79
2024/03/04 08:31:01;;;;;;;15.75;3.03;;;8.10;99.90;;;;;;5008952;28;20041;-79
2024/03/04 08:33:26;;;;;;;8.48;2.40;;;8.10;99.90;;;;;;5008456;28;20552;-79
2024/03/04 08:35:52;;;;;;;4.35;1.95;;;8.20;99.90;;;;;;5008045;28;20033;-79
2024/03/04 08:38:17;;;;;;;5.57;1.65;;;8.20;99.90;;;;;;5008618;28;20057;-80
2024/03/04 08:40:43;;;;;;;5.20;1.88;;;8.20;99.90;;;;;;5010061;28;20543;-79
2024/03/04 08:43:10;;;;;;;6.63;2.03;;;8.20;99.90;;;;;;5008459;28;20645;-79
2024/03/04 08:45:35;;;;;;;6.35;2.35;;;8.20;99.90;;;;;;5006907;28;20025;-79
2024/03/04 08:48:01;;;;;;;3.50;1.88;;;8.20;99.90;;;;;;5008729;28;20553;-79
2024/03/04 08:50:27;;;;;;;3.45;1.73;;;8.20;99.90;;;;;;5007867;28;20780;-79
2024/03/04 08:52:52;;;;;;;5.13;1.30;;;8.30;99.90;;;;;;5008103;28;20581;-80
2024/03/04 08:55:18;;;;;;;4.53;1.70;;;8.30;99.90;;;;;;5008149;28;20072;-79
2024/03/04 08:57:44;;;;;;;4.40;1.67;;;8.40;99.90;;;;;;5009259;28;20033;-77
2024/03/04 09:00:10;;;;;;;3.88;1.48;;;8.30;99.90;;;;;;5011291;28;20049;-80
2024/03/04 09:02:36;;;;;;;4.05;1.08;;;8.40;99.90;;;;;;5011939;28;20026;-78
2024/03/04 09:05:02;;;;;;;2.45;1.10;;;8.40;99.90;;;;;;5011309;28;21294;-78
2024/03/04 09:07:27;;;;;;;3.33;1.27;;;8.40;99.90;;;;;;5010566;28;20131;-79
2024/03/04 09:09:54;;;;;;;2.72;1.17;;;8.40;99.90;;;;;;5012048;28;20060;-81
2024/03/04 09:12:21;;;;;;;2.75;1.48;;;8.40;99.90;;;;;;5011752;28;20037;-81
2024/03/04 09:14:47;;;;;;;2.53;1.20;;;8.40;99.90;;;;;;5011445;28;23598;-81
2024/03/04 09:17:12;;;;;;;2.88;1.40;;;8.50;99.90;;;;;;5009988;28;20025;-80
2024/03/04 09:19:41;;;;;;;1.60;1.00;;;8.50;99.90;;;;;;5010355;28;20431;-79
2024/03/04 09:22:07;;;;;;;2.97;1.10;;;8.40;99.90;;;;;;5010375;28;20121;-80
2024/03/04 09:24:33;;;;;;;2.13;0.90;;;8.40;99.90;;;;;;5011688;28;20041;-79
2024/03/04 09:27:00;;;;;;;2.70;1.13;;;8.40;99.90;;;;;;5010664;28;20048;-79
2024/03/04 09:29:26;;;;;;;4.13;0.68;;;8.50;99.90;;;;;;5010423;28;20045;-79
2024/03/04 09:31:52;;;;;;;2.92;0.93;;;8.60;99.90;;;;;;5011970;28;20049;-79
2024/03/04 09:34:18;;;;;;;1.17;0.60;;;8.60;99.90;;;;;;5009840;28;20072;-77
2024/03/04 09:36:43;;;;;;;2.85;0.88;;;8.60;99.90;;;;;;5010312;28;20485;-77
2024/03/04 09:39:09;;;;;;;1.88;0.70;;;8.50;99.90;;;;;;5011544;28;20045;-77
2024/03/04 09:41:39;;;;;;;2.70;1.52;;;8.60;99.90;;;;;;5008903;28;20034;-77
2024/03/04 09:44:06;;;;;;;5.80;1.10;;;8.60;99.90;;;;;;5009124;28;20087;-78
2024/03/04 09:46:35;;;;;;;1.42;0.73;;;8.60;99.90;;;;;;5012134;28;20034;-77
2024/03/04 09:49:02;;;;;;;2.67;0.90;;;8.50;99.90;;;;;;5009961;28;20059;-77
2024/03/04 09:51:30;;;;;;;4.05;1.20;;;8.70;99.90;;;;;;5009540;28;20034;-78
2024/03/04 09:54:02;;;;;;;1.98;0.80;;;8.80;99.90;;;;;;5010597;28;20025;-77
2024/03/04 09:56:28;;;;;;;5.03;1.20;;;8.80;99.90;;;;;;5010659;28;20112;-77
2024/03/04 09:58:54;;;;;;;2.72;0.90;;;8.70;99.90;;;;;;5009556;28;20386;-77
2024/03/04 10:01:20;;;;;;;2.88;0.80;;;8.80;99.90;;;;;;5009835;28;20657;-77
2024/03/04 10:03:47;;;;;;;3.53;0.98;;;8.90;99.90;;;;;;5010643;28;20029;-77
2024/03/04 10:06:13;;;;;;;3.28;0.80;;;9.10;99.90;;;;;;5009055;28;20025;-77
2024/03/04 10:08:39;;;;;;;4.47;1.30;;;9.20;99.90;;;;;;5010079;28;20399;-77
2024/03/04 10:11:05;;;;;;;3.17;1.27;;;9.20;99.90;;;;;;5011263;28;20057;-78
2024/03/04 10:13:31;;;;;;;3.45;1.63;;;9.30;99.90;;;;;;5009698;28;20040;-77
2024/03/04 10:15:57;;;;;;;2.47;1.30;;;9.40;99.90;;;;;;5009622;28;20518;-77
2024/03/04 10:18:23;;;;;;;3.13;1.77;;;9.50;99.90;;;;;;5010780;28;20519;-78
2024/03/04 10:20:54;;;;;;;4.05;1.73;;;9.50;99.90;;;;;;5008920;28;20099;-78
2024/03/04 10:23:20;;;;;;;4.15;1.80;;;9.60;99.90;;;;;;5008029;28;20037;-77
2024/03/04 10:25:46;;;;;;;4.32;1.50;;;9.60;99.90;;;;;;5007931;28;20371;-77
2024/03/04 10:28:14;;;;;;;2.17;1.33;;;9.80;99.90;;;;;;5005885;28;20547;-78
2024/03/04 10:30:39;;;;;;;1.17;0.60;;;9.90;99.90;;;;;;5005822;28;20112;-78
2024/03/04 10:33:05;;;;;;;2.40;0.70;;;10.10;99.90;;;;;;5007493;28;20087;-77
2024/03/04 10:35:31;;;;;;;3.55;1.83;;;10.20;99.90;;;;;;5008584;28;20588;-78
2024/03/04 10:38:02;;;;;;;5.40;1.40;;;10.10;99.90;;;;;;5009118;28;20488;-78
2024/03/04 10:40:29;;;;;;;6.57;2.00;;;10.10;99.90;;;;;;5009153;28;20045;-78
2024/03/04 10:43:01;;;;;;;5.00;1.90;;;10.00;99.90;;;;;;5010700;28;20032;-77
2024/03/04 10:45:30;;;;;;;7.15;2.88;;;9.80;99.90;;;;;;5008844;28;20038;-78
2024/03/04 10:47:56;;;;;;;4.40;2.45;;;9.80;99.90;;;;;;5008642;28;20064;-78
2024/03/04 10:50:22;;;;;;;7.10;4.40;;;9.80;99.90;;;;;;5010477;28;20041;-77
2024/03/04 10:52:48;;;;;;;12.80;3.70;;;9.80;99.90;;;;;;5009143;28;20059;-78
2024/03/04 10:55:14;;;;;;;8.10;2.63;;;9.90;99.90;;;;;;5008935;28;20038;-78
2024/03/04 10:57:43;;;;;;;5.75;2.95;;;9.90;99.90;;;;;;5010083;28;20052;-78
2024/03/04 11:00:31;;;;;;;3.53;1.95;;;10.10;99.90;;;;;;5008718;28;20468;-78
2024/03/04 11:02:57;;;;;;;4.55;1.55;;;10.20;99.90;;;;;;5010185;28;20033;-78
2024/03/04 11:05:23;;;;;;;6.78;1.65;;;10.20;99.90;;;;;;5008110;28;20033;-78
2024/03/04 11:07:51;;;;;;;3.70;1.83;;;10.20;99.90;;;;;;5008431;28;20579;-78
2024/03/04 11:10:29;;;;;;;4.25;1.70;;;10.20;99.90;;;;;;5009885;28;20641;-77
2024/03/04 11:13:32;;;;;;;3.33;1.85;;;10.30;99.90;;;;;;5009325;28;20034;-78
2024/03/04 11:16:01;;;;;;;3.45;1.80;;;10.20;99.90;;;;;;5008365;28;20041;-77
2024/03/04 11:18:49;;;;;;;5.80;2.38;;;10.30;99.90;;;;;;5008397;28;20029;-78
2024/03/04 11:21:17;;;;;;;8.73;5.28;;;10.50;99.90;;;;;;5008241;28;20090;-78
2024/03/04 11:23:45;;;;;;;11.63;8.05;;;10.60;99.90;;;;;;5009732;28;20017;-78
2024/03/04 11:26:11;;;;;;;13.35;8.00;;;10.80;99.90;;;;;;5010149;28;20500;-78
2024/03/04 11:28:38;;;;;;;7.00;3.95;;;11.00;99.90;;;;;;5008915;28;20064;-78
2024/03/04 11:31:25;;;;;;;5.18;3.83;;;11.00;99.90;;;;;;5008025;28;20037;-78
2024/03/04 11:34:10;;;;;;;9.85;3.80;;;10.90;99.90;;;;;;5008782;28;20085;-78
2024/03/04 11:36:36;;;;;;;4.38;2.42;;;11.20;99.90;;;;;;5008956;28;20132;-79
2024/03/04 11:39:15;;;;;;;7.00;2.97;;;11.50;99.90;;;;;;5008824;28;20043;-78
2024/03/04 11:41:44;;;;;;;7.65;2.20;;;12.00;99.90;;;;;;5009927;28;20037;-78
2024/03/04 11:44:12;;;;;;;6.55;2.17;;;12.30;99.90;;;;;;5009489;28;20602;-77
2024/03/04 11:46:42;;;;;;;7.68;2.30;;;12.10;99.90;;;;;;5008344;28;21970;-78
2024/03/04 11:49:26;;;;;;;6.78;2.63;;;12.10;99.90;;;;;;5009772;28;20112;-78
2024/03/04 11:52:02;;;;;;;4.65;1.73;;;11.50;99.90;;;;;;5009103;28;20039;-78
2024/03/04 11:54:36;;;;;;;3.85;2.20;;;11.50;99.90;;;;;;5010007;28;20033;-78
2024/03/04 11:57:07;;;;;;;4.22;2.13;;;11.50;99.90;;;;;;5008808;28;20435;-78
2024/03/04 11:59:33;;;;;;;3.85;1.80;;;11.60;99.90;;;;;;5009041;28;20395;-78
2024/03/04 12:01:59;;;;;;;3.90;1.77;;;11.60;99.90;;;;;;5009169;28;20041;-78
2024/03/04 12:04:26;;;;;;;5.05;1.63;;;11.70;99.90;;;;;;5008887;28;20099;-78
2024/03/04 12:06:55;;;;;;;5.20;2.33;;;12.10;99.90;;;;;;5007886;28;20079;-78
2024/03/04 12:09:26;;;;;;;4.13;2.25;;;12.20;99.90;;;;;;5010147;28;20036;-77
2024/03/04 12:11:55;;;;;;;6.00;2.58;;;12.00;99.90;;;;;;5013317;28;20498;-78
2024/03/04 12:14:23;;;;;;;3.78;2.00;;;12.00;99.90;;;;;;5012348;28;20033;-77
2024/03/04 12:16:49;;;;;;;4.75;1.50;;;12.00;99.90;;;;;;5009055;28;20045;-77
2024/03/04 12:19:15;;;;;;;4.25;1.73;;;12.20;99.90;;;;;;5011488;28;20068;-78
2024/03/04 12:21:43;;;;;;;4.63;2.03;;;12.10;99.90;;;;;;5011638;28;20037;-79
2024/03/04 12:24:08;;;;;;;3.70;1.80;;;12.00;99.90;;;;;;5011988;28;20029;-79
2024/03/04 12:26:35;;;;;;;2.97;1.40;;;12.30;99.90;;;;;;5011316;28;20546;-77
2024/03/04 12:29:07;;;;;;;3.70;1.27;;;12.40;99.90;;;;;;5004571;28;20045;-77
2024/03/04 12:31:33;;;;;;;3.22;1.50;;;12.30;99.90;;;;;;5009335;28;20052;-78
2024/03/04 12:33:59;;;;;;;3.90;1.60;;;12.30;99.90;;;;;;5008683;28;20033;-78
2024/03/04 12:36:28;;;;;;;4.72;2.53;;;12.50;99.90;;;;;;5008986;28;20083;-78
2024/03/04 12:38:56;;;;;;;2.78;1.73;;;12.40;99.90;;;;;;5007753;28;20431;-78
2024/03/04 12:41:24;;;;;;;2.95;1.55;;;12.50;99.90;;;;;;5008846;28;20144;-78
2024/03/04 12:43:50;;;;;;;4.93;2.05;;;12.40;99.90;;;;;;5009510;28;20084;-77
2024/03/04 12:46:20;;;;;;;5.28;2.70;;;12.50;99.90;;;;;;5008201;28;20117;-78
2024/03/04 12:48:46;;;;;;;18.73;9.32;;;12.40;99.90;;;;;;5008455;28;20138;-77
2024/03/04 12:51:14;;;;;;;8.57;4.30;;;12.40;99.90;;;;;;5008337;28;20044;-80
2024/03/04 12:53:40;;;;;;;6.45;2.95;;;12.40;99.90;;;;;;5007411;28;20451;-78